PWSweather.com
Personal Weather Stations
Station Observations
KOHAVON11
Long Road Station, Avon, OH 44011

Long Road StationAvon, OH 44011

Lat: 41.437, Lon: -82.0477

Elevation: 686

Station Type: Davis Vantage Pro2

http://www.avon-weather.com

High Low Average
Temperature 35.9°F2.2°C 30.3°F-0.9°C 33.5°F0.8°C
Dew Point 27.9°F-2.3°C 23.0°F-5.0°C 25.6°F-3.6°C
Winds 23.0 mph 37.0 kmh 2.0 mph 3.2 kmh 9.0 mph WSW14.5 kmh WSW
Wind Gusts 31.0 mph49.9 kmh 7.0 mph11.3 kmh 18.0 mph29.0 kmh
Humidity 86% 62% 73%
Pressure 29.92 in1013.2 mb 29.77 in1008.1 mb -
Precipitation 0.00 in0.0 mm - -
Hour Temp Dew Point Humidity Winds Wind Gusts Pressure Precip Precip Rate Daily Precip Total
12:00 AM 32.8°F0.4°C 27.6°F-2.4°C 81% 10.0 mph WSW16.1 kmh WSW 22.0 mph35.4 kmh 29.80 in1009.1 mb 0.00 in0.0 mm 0.00 in0.0 mm 0.00 in0.0 mm
12:05 AM 32.7°F0.4°C 27.5°F-2.5°C 81% 9.0 mph W14.5 kmh W 22.0 mph35.4 kmh 29.80 in1009.1 mb 0.00 in0.0 mm 0.00 in0.0 mm 0.00 in0.0 mm
12:10 AM 32.7°F0.4°C 27.5°F-2.5°C 81% 6.0 mph WSW9.7 kmh WSW 22.0 mph35.4 kmh 29.80 in1009.1 mb 0.00 in0.0 mm 0.00 in0.0 mm 0.00 in0.0 mm
12:15 AM 32.7°F0.4°C 27.5°F-2.5°C 81% 13.0 mph WSW20.9 kmh WSW 19.0 mph30.6 kmh 29.80 in1009.1 mb 0.00 in0.0 mm 0.00 in0.0 mm 0.00 in0.0 mm
12:20 AM 32.7°F0.4°C 27.5°F-2.5°C 81% 13.0 mph WSW20.9 kmh WSW 19.0 mph30.6 kmh 29.80 in1009.1 mb 0.00 in0.0 mm 0.00 in0.0 mm 0.00 in0.0 mm
12:25 AM 32.6°F0.3°C 27.4°F-2.6°C 81% 11.0 mph WSW17.7 kmh WSW 19.0 mph30.6 kmh 29.80 in1009.1 mb 0.00 in0.0 mm 0.00 in0.0 mm 0.00 in0.0 mm
12:30 AM 32.7°F0.4°C 27.5°F-2.5°C 81% 12.0 mph W19.3 kmh W 22.0 mph35.4 kmh 29.80 in1009.1 mb 0.00 in0.0 mm 0.00 in0.0 mm 0.00 in0.0 mm
12:35 AM 32.7°F0.4°C 27.5°F-2.5°C 81% 16.0 mph WSW25.7 kmh WSW 23.0 mph37.0 kmh 29.80 in1009.1 mb 0.00 in0.0 mm 0.00 in0.0 mm 0.00 in0.0 mm
12:40 AM 32.7°F0.4°C 27.5°F-2.5°C 81% 13.0 mph WSW20.9 kmh WSW 23.0 mph37.0 kmh 29.80 in1009.1 mb 0.00 in0.0 mm 0.00 in0.0 mm 0.00 in0.0 mm
12:45 AM 32.7°F0.4°C 27.2°F-2.7°C 80% 19.0 mph W30.6 kmh W 23.0 mph37.0 kmh 29.80 in1009.1 mb 0.00 in0.0 mm 0.00 in0.0 mm 0.00 in0.0 mm
12:50 AM 32.7°F0.4°C 27.2°F-2.7°C 80% 18.0 mph WNW29.0 kmh WNW 23.0 mph37.0 kmh 29.80 in1009.1 mb 0.00 in0.0 mm 0.00 in0.0 mm 0.00 in0.0 mm
12:55 AM 32.7°F0.4°C 27.2°F-2.7°C 80% 14.0 mph SW22.5 kmh SW 23.0 mph37.0 kmh 29.80 in1009.1 mb 0.00 in0.0 mm 0.00 in0.0 mm 0.00 in0.0 mm
01:00 AM 32.7°F0.4°C 27.2°F-2.7°C 80% 11.0 mph SW17.7 kmh SW 23.0 mph37.0 kmh 29.80 in1009.1 mb 0.00 in0.0 mm 0.00 in0.0 mm 0.00 in0.0 mm
01:05 AM 32.6°F0.3°C 27.1°F-2.7°C 80% 10.0 mph W16.1 kmh W 23.0 mph37.0 kmh 29.80 in1009.1 mb 0.00 in0.0 mm 0.00 in0.0 mm 0.00 in0.0 mm
01:10 AM 32.6°F0.3°C 27.1°F-2.7°C 80% 19.0 mph WSW30.6 kmh WSW 22.0 mph35.4 kmh 29.80 in1009.1 mb 0.00 in0.0 mm 0.00 in0.0 mm 0.00 in0.0 mm
01:15 AM 32.6°F0.3°C 27.4°F-2.6°C 81% 15.0 mph SW24.1 kmh SW 22.0 mph35.4 kmh 29.80 in1009.1 mb 0.00 in0.0 mm 0.00 in0.0 mm 0.00 in0.0 mm
01:20 AM 32.6°F0.3°C 27.4°F-2.6°C 81% 12.0 mph W19.3 kmh W 22.0 mph35.4 kmh 29.80 in1009.1 mb 0.00 in0.0 mm 0.00 in0.0 mm 0.00 in0.0 mm
01:25 AM 32.5°F0.3°C 27.3°F-2.6°C 81% 14.0 mph WSW22.5 kmh WSW 22.0 mph35.4 kmh 29.80 in1009.1 mb 0.00 in0.0 mm 0.00 in0.0 mm 0.00 in0.0 mm
01:30 AM 32.5°F0.3°C 27.3°F-2.6°C 81% 9.0 mph WSW14.5 kmh WSW 19.0 mph30.6 kmh 29.80 in1009.1 mb 0.00 in0.0 mm 0.00 in0.0 mm 0.00 in0.0 mm
01:35 AM 32.5°F0.3°C 27.3°F-2.6°C 81% 10.0 mph WSW16.1 kmh WSW 19.0 mph30.6 kmh 29.80 in1009.1 mb 0.00 in0.0 mm 0.00 in0.0 mm 0.00 in0.0 mm
01:40 AM 32.5°F0.3°C 27.3°F-2.6°C 81% 7.0 mph WSW11.3 kmh WSW 18.0 mph29.0 kmh 29.80 in1009.1 mb 0.00 in0.0 mm 0.00 in0.0 mm 0.00 in0.0 mm
01:45 AM 32.5°F0.3°C 27.3°F-2.6°C 81% 14.0 mph WSW22.5 kmh WSW 19.0 mph30.6 kmh 29.80 in1009.1 mb 0.00 in0.0 mm 0.00 in0.0 mm 0.00 in0.0 mm
01:50 AM 32.5°F0.3°C 27.3°F-2.6°C 81% 15.0 mph WSW24.1 kmh WSW 19.0 mph30.6 kmh 29.80 in1009.1 mb 0.00 in0.0 mm 0.00 in0.0 mm 0.00 in0.0 mm
01:55 AM 32.5°F0.3°C 27.0°F-2.8°C 80% 15.0 mph WSW24.1 kmh WSW 19.0 mph30.6 kmh 29.80 in1009.1 mb 0.00 in0.0 mm 0.00 in0.0 mm 0.00 in0.0 mm
02:00 AM 32.5°F0.3°C 27.0°F-2.8°C 80% 11.0 mph WSW17.7 kmh WSW 19.0 mph30.6 kmh 29.80 in1009.1 mb 0.00 in0.0 mm 0.00 in0.0 mm 0.00 in0.0 mm
02:05 AM 32.5°F0.3°C 27.0°F-2.8°C 80% 14.0 mph W22.5 kmh W 20.0 mph32.2 kmh 29.80 in1009.1 mb 0.00 in0.0 mm 0.00 in0.0 mm 0.00 in0.0 mm
02:10 AM 32.5°F0.3°C 27.0°F-2.8°C 80% 6.0 mph WSW9.7 kmh WSW 20.0 mph32.2 kmh 29.80 in1009.1 mb 0.00 in0.0 mm 0.00 in0.0 mm 0.00 in0.0 mm
02:15 AM 32.5°F0.3°C 27.0°F-2.8°C 80% 7.0 mph W11.3 kmh W 20.0 mph32.2 kmh 29.80 in1009.1 mb 0.00 in0.0 mm 0.00 in0.0 mm 0.00 in0.0 mm
02:20 AM 32.5°F0.3°C 27.0°F-2.8°C 80% 7.0 mph WNW11.3 kmh WNW 20.0 mph32.2 kmh 29.80 in1009.1 mb 0.00 in0.0 mm 0.00 in0.0 mm 0.00 in0.0 mm
02:25 AM 32.5°F0.3°C 27.0°F-2.8°C 80% 8.0 mph WSW12.9 kmh WSW 15.0 mph24.1 kmh 29.80 in1009.1 mb 0.00 in0.0 mm 0.00 in0.0 mm 0.00 in0.0 mm
02:30 AM 32.5°F0.3°C 27.0°F-2.8°C 80% 3.0 mph SW4.8 kmh SW 16.0 mph25.7 kmh 29.79 in1008.8 mb 0.00 in0.0 mm 0.00 in0.0 mm 0.00 in0.0 mm
02:35 AM 32.5°F0.3°C 27.0°F-2.8°C 80% 10.0 mph WSW16.1 kmh WSW 16.0 mph25.7 kmh 29.79 in1008.8 mb 0.00 in0.0 mm 0.00 in0.0 mm 0.00 in0.0 mm
02:40 AM 32.5°F0.3°C 26.7°F-2.9°C 79% 7.0 mph WSW11.3 kmh WSW 16.0 mph25.7 kmh 29.79 in1008.8 mb 0.00 in0.0 mm 0.00 in0.0 mm 0.00 in0.0 mm
02:45 AM 32.5°F0.3°C 26.7°F-2.9°C 79% 11.0 mph WSW17.7 kmh WSW 16.0 mph25.7 kmh 29.79 in1008.8 mb 0.00 in0.0 mm 0.00 in0.0 mm 0.00 in0.0 mm
02:50 AM 32.5°F0.3°C 26.7°F-2.9°C 79% 6.0 mph SW9.7 kmh SW 13.0 mph20.9 kmh 29.80 in1009.1 mb 0.00 in0.0 mm 0.00 in0.0 mm 0.00 in0.0 mm
02:55 AM 32.5°F0.3°C 26.7°F-2.9°C 79% 5.0 mph WSW8.0 kmh WSW 13.0 mph20.9 kmh 29.79 in1008.8 mb 0.00 in0.0 mm 0.00 in0.0 mm 0.00 in0.0 mm
03:00 AM 32.6°F0.3°C 26.8°F-2.9°C 79% 5.0 mph SW8.0 kmh SW 13.0 mph20.9 kmh 29.79 in1008.8 mb 0.00 in0.0 mm 0.00 in0.0 mm 0.00 in0.0 mm
03:05 AM 32.6°F0.3°C 26.8°F-2.9°C 79% 5.0 mph WSW8.0 kmh WSW 16.0 mph25.7 kmh 29.79 in1008.8 mb 0.00 in0.0 mm 0.00 in0.0 mm 0.00 in0.0 mm
03:10 AM 32.5°F0.3°C 26.7°F-2.9°C 79% 7.0 mph WSW11.3 kmh WSW 16.0 mph25.7 kmh 29.79 in1008.8 mb 0.00 in0.0 mm 0.00 in0.0 mm 0.00 in0.0 mm
03:15 AM 32.5°F0.3°C 26.7°F-2.9°C 79% 5.0 mph WSW8.0 kmh WSW 17.0 mph27.4 kmh 29.79 in1008.8 mb 0.00 in0.0 mm 0.00 in0.0 mm 0.00 in0.0 mm
03:20 AM 32.5°F0.3°C 26.7°F-2.9°C 79% 6.0 mph W9.7 kmh W 17.0 mph27.4 kmh 29.79 in1008.8 mb 0.00 in0.0 mm 0.00 in0.0 mm 0.00 in0.0 mm
03:25 AM 32.5°F0.3°C 27.0°F-2.8°C 80% 5.0 mph WSW8.0 kmh WSW 17.0 mph27.4 kmh 29.79 in1008.8 mb 0.00 in0.0 mm 0.00 in0.0 mm 0.00 in0.0 mm
03:30 AM 32.5°F0.3°C 27.0°F-2.8°C 80% 4.0 mph WSW6.4 kmh WSW 17.0 mph27.4 kmh 29.79 in1008.8 mb 0.00 in0.0 mm 0.00 in0.0 mm 0.00 in0.0 mm
03:35 AM 32.4°F0.2°C 26.9°F-2.8°C 80% 3.0 mph WSW4.8 kmh WSW 14.0 mph22.5 kmh 29.79 in1008.8 mb 0.00 in0.0 mm 0.00 in0.0 mm 0.00 in0.0 mm
03:40 AM 32.4°F0.2°C 26.9°F-2.8°C 80% 7.0 mph WSW11.3 kmh WSW 14.0 mph22.5 kmh 29.79 in1008.8 mb 0.00 in0.0 mm 0.00 in0.0 mm 0.00 in0.0 mm
03:45 AM 32.4°F0.2°C 26.9°F-2.8°C 80% 7.0 mph WSW11.3 kmh WSW 13.0 mph20.9 kmh 29.79 in1008.8 mb 0.00 in0.0 mm 0.00 in0.0 mm 0.00 in0.0 mm
03:50 AM 32.4°F0.2°C 26.9°F-2.8°C 80% 7.0 mph SW11.3 kmh SW 16.0 mph25.7 kmh 29.78 in1008.5 mb 0.00 in0.0 mm 0.00 in0.0 mm 0.00 in0.0 mm
03:55 AM 32.4°F0.2°C 26.9°F-2.8°C 80% 5.0 mph SW8.0 kmh SW 16.0 mph25.7 kmh 29.78 in1008.5 mb 0.00 in0.0 mm 0.00 in0.0 mm 0.00 in0.0 mm
04:00 AM 32.4°F0.2°C 26.6°F-3.0°C 79% 7.0 mph WSW11.3 kmh WSW 16.0 mph25.7 kmh 29.79 in1008.8 mb 0.00 in0.0 mm 0.00 in0.0 mm 0.00 in0.0 mm
04:05 AM 32.5°F0.3°C 26.7°F-2.9°C 79% 6.0 mph W9.7 kmh W 20.0 mph32.2 kmh 29.78 in1008.5 mb 0.00 in0.0 mm 0.00 in0.0 mm 0.00 in0.0 mm
04:10 AM 32.5°F0.3°C 26.7°F-2.9°C 79% 4.0 mph SW6.4 kmh SW 20.0 mph32.2 kmh 29.78 in1008.5 mb 0.00 in0.0 mm 0.00 in0.0 mm 0.00 in0.0 mm
04:15 AM 32.5°F0.3°C 26.7°F-2.9°C 79% 7.0 mph SW11.3 kmh SW 20.0 mph32.2 kmh 29.78 in1008.5 mb 0.00 in0.0 mm 0.00 in0.0 mm 0.00 in0.0 mm
04:20 AM 32.5°F0.3°C 26.7°F-2.9°C 79% 4.0 mph SW6.4 kmh SW 20.0 mph32.2 kmh 29.78 in1008.5 mb 0.00 in0.0 mm 0.00 in0.0 mm 0.00 in0.0 mm
04:25 AM 32.5°F0.3°C 26.7°F-2.9°C 79% 6.0 mph W9.7 kmh W 11.0 mph17.7 kmh 29.78 in1008.5 mb 0.00 in0.0 mm 0.00 in0.0 mm 0.00 in0.0 mm
04:30 AM 32.6°F0.3°C 26.5°F-3.1°C 78% 9.0 mph SW14.5 kmh SW 16.0 mph25.7 kmh 29.78 in1008.5 mb 0.00 in0.0 mm 0.00 in0.0 mm 0.00 in0.0 mm
04:35 AM 32.6°F0.3°C 26.5°F-3.1°C 78% 9.0 mph WSW14.5 kmh WSW 16.0 mph25.7 kmh 29.78 in1008.5 mb 0.00 in0.0 mm 0.00 in0.0 mm 0.00 in0.0 mm
04:40 AM 32.6°F0.3°C 26.5°F-3.1°C 78% 8.0 mph WSW12.9 kmh WSW 16.0 mph25.7 kmh 29.78 in1008.5 mb 0.00 in0.0 mm 0.00 in0.0 mm 0.00 in0.0 mm
04:45 AM 32.6°F0.3°C 26.5°F-3.1°C 78% 7.0 mph WSW11.3 kmh WSW 16.0 mph25.7 kmh 29.78 in1008.5 mb 0.00 in0.0 mm 0.00 in0.0 mm 0.00 in0.0 mm
04:50 AM 32.6°F0.3°C 26.5°F-3.1°C 78% 5.0 mph WSW8.0 kmh WSW 16.0 mph25.7 kmh 29.78 in1008.5 mb 0.00 in0.0 mm 0.00 in0.0 mm 0.00 in0.0 mm
04:55 AM 32.7°F0.4°C 26.6°F-3.0°C 78% 6.0 mph WSW9.7 kmh WSW 16.0 mph25.7 kmh 29.78 in1008.5 mb 0.00 in0.0 mm 0.00 in0.0 mm 0.00 in0.0 mm
05:00 AM 32.7°F0.4°C 26.6°F-3.0°C 78% 7.0 mph WSW11.3 kmh WSW 14.0 mph22.5 kmh 29.78 in1008.5 mb 0.00 in0.0 mm 0.00 in0.0 mm 0.00 in0.0 mm
05:05 AM 32.7°F0.4°C 26.6°F-3.0°C 78% 7.0 mph WSW11.3 kmh WSW 14.0 mph22.5 kmh 29.78 in1008.5 mb 0.00 in0.0 mm 0.00 in0.0 mm 0.00 in0.0 mm
05:10 AM 32.7°F0.4°C 26.6°F-3.0°C 78% 12.0 mph WSW19.3 kmh WSW 14.0 mph22.5 kmh 29.78 in1008.5 mb 0.00 in0.0 mm 0.00 in0.0 mm 0.00 in0.0 mm
05:15 AM 32.7°F0.4°C 26.2°F-3.2°C 77% 6.0 mph SW9.7 kmh SW 14.0 mph22.5 kmh 29.79 in1008.8 mb 0.00 in0.0 mm 0.00 in0.0 mm 0.00 in0.0 mm
05:20 AM 32.7°F0.4°C 26.6°F-3.0°C 78% 6.0 mph WSW9.7 kmh WSW 14.0 mph22.5 kmh 29.78 in1008.5 mb 0.00 in0.0 mm 0.00 in0.0 mm 0.00 in0.0 mm
05:25 AM 32.7°F0.4°C 26.2°F-3.2°C 77% 8.0 mph WSW12.9 kmh WSW 17.0 mph27.4 kmh 29.78 in1008.5 mb 0.00 in0.0 mm 0.00 in0.0 mm 0.00 in0.0 mm
05:30 AM 32.7°F0.4°C 26.2°F-3.2°C 77% 6.0 mph W9.7 kmh W 17.0 mph27.4 kmh 29.78 in1008.5 mb 0.00 in0.0 mm 0.00 in0.0 mm 0.00 in0.0 mm
05:35 AM 32.7°F0.4°C 26.2°F-3.2°C 77% 9.0 mph WSW14.5 kmh WSW 17.0 mph27.4 kmh 29.78 in1008.5 mb 0.00 in0.0 mm 0.00 in0.0 mm 0.00 in0.0 mm
05:40 AM 32.7°F0.4°C 26.2°F-3.2°C 77% 5.0 mph WSW8.0 kmh WSW 17.0 mph27.4 kmh 29.78 in1008.5 mb 0.00 in0.0 mm 0.00 in0.0 mm 0.00 in0.0 mm
05:45 AM 32.7°F0.4°C 26.2°F-3.2°C 77% 11.0 mph SW17.7 kmh SW 16.0 mph25.7 kmh 29.78 in1008.5 mb 0.00 in0.0 mm 0.00 in0.0 mm 0.00 in0.0 mm
05:50 AM 32.7°F0.4°C 26.2°F-3.2°C 77% 6.0 mph W9.7 kmh W 16.0 mph25.7 kmh 29.78 in1008.5 mb 0.00 in0.0 mm 0.00 in0.0 mm 0.00 in0.0 mm
05:55 AM 32.6°F0.3°C 26.2°F-3.2°C 77% 6.0 mph WSW9.7 kmh WSW 16.0 mph25.7 kmh 29.78 in1008.5 mb 0.00 in0.0 mm 0.00 in0.0 mm 0.00 in0.0 mm
06:00 AM 32.5°F0.3°C 26.4°F-3.1°C 78% 5.0 mph WSW8.0 kmh WSW 16.0 mph25.7 kmh 29.78 in1008.5 mb 0.00 in0.0 mm 0.00 in0.0 mm 0.00 in0.0 mm
06:05 AM 32.5°F0.3°C 26.4°F-3.1°C 78% 7.0 mph WSW11.3 kmh WSW 14.0 mph22.5 kmh 29.78 in1008.5 mb 0.00 in0.0 mm 0.00 in0.0 mm 0.00 in0.0 mm
06:10 AM 32.4°F0.2°C 26.6°F-3.0°C 79% 6.0 mph W9.7 kmh W 14.0 mph22.5 kmh 29.78 in1008.5 mb 0.00 in0.0 mm 0.00 in0.0 mm 0.00 in0.0 mm
06:15 AM 32.3°F0.2°C 26.5°F-3.1°C 79% 6.0 mph SW9.7 kmh SW 13.0 mph20.9 kmh 29.78 in1008.5 mb 0.00 in0.0 mm 0.00 in0.0 mm 0.00 in0.0 mm
06:20 AM 32.3°F0.2°C 26.5°F-3.1°C 79% 6.0 mph WSW9.7 kmh WSW 13.0 mph20.9 kmh 29.78 in1008.5 mb 0.00 in0.0 mm 0.00 in0.0 mm 0.00 in0.0 mm
06:25 AM 32.2°F0.1°C 26.4°F-3.1°C 79% 6.0 mph WSW9.7 kmh WSW 17.0 mph27.4 kmh 29.78 in1008.5 mb 0.00 in0.0 mm 0.00 in0.0 mm 0.00 in0.0 mm
06:30 AM 32.2°F0.1°C 26.4°F-3.1°C 79% 10.0 mph WSW16.1 kmh WSW 17.0 mph27.4 kmh 29.78 in1008.5 mb 0.00 in0.0 mm 0.00 in0.0 mm 0.00 in0.0 mm
06:35 AM 32.2°F0.1°C 26.4°F-3.1°C 79% 8.0 mph SW12.9 kmh SW 17.0 mph27.4 kmh 29.78 in1008.5 mb 0.00 in0.0 mm 0.00 in0.0 mm 0.00 in0.0 mm
06:40 AM 32.2°F0.1°C 26.4°F-3.1°C 79% 7.0 mph WSW11.3 kmh WSW 17.0 mph27.4 kmh 29.78 in1008.5 mb 0.00 in0.0 mm 0.00 in0.0 mm 0.00 in0.0 mm
06:45 AM 32.2°F0.1°C 26.4°F-3.1°C 79% 7.0 mph WSW11.3 kmh WSW 15.0 mph24.1 kmh 29.78 in1008.5 mb 0.00 in0.0 mm 0.00 in0.0 mm 0.00 in0.0 mm
06:50 AM 32.2°F0.1°C 26.4°F-3.1°C 79% 16.0 mph WSW25.7 kmh WSW 16.0 mph25.7 kmh 29.77 in1008.1 mb 0.00 in0.0 mm 0.00 in0.0 mm 0.00 in0.0 mm
06:55 AM 32.3°F0.2°C 26.5°F-3.1°C 79% 6.0 mph WSW9.7 kmh WSW 16.0 mph25.7 kmh 29.78 in1008.5 mb 0.00 in0.0 mm 0.00 in0.0 mm 0.00 in0.0 mm
07:00 AM 32.3°F0.2°C 26.5°F-3.1°C 79% 7.0 mph WSW11.3 kmh WSW 16.0 mph25.7 kmh 29.77 in1008.1 mb 0.00 in0.0 mm 0.00 in0.0 mm 0.00 in0.0 mm
07:05 AM 32.3°F0.2°C 26.5°F-3.1°C 79% 14.0 mph W22.5 kmh W 17.0 mph27.4 kmh 29.77 in1008.1 mb 0.00 in0.0 mm 0.00 in0.0 mm 0.00 in0.0 mm
07:10 AM 32.4°F0.2°C 26.6°F-3.0°C 79% 8.0 mph SW12.9 kmh SW 18.0 mph29.0 kmh 29.77 in1008.1 mb 0.00 in0.0 mm 0.00 in0.0 mm 0.00 in0.0 mm
07:15 AM 32.4°F0.2°C 26.3°F-3.2°C 78% 12.0 mph WSW19.3 kmh WSW 21.0 mph33.8 kmh 29.78 in1008.5 mb 0.00 in0.0 mm 0.00 in0.0 mm 0.00 in0.0 mm
07:20 AM 32.4°F0.2°C 26.3°F-3.2°C 78% 12.0 mph WSW19.3 kmh WSW 24.0 mph38.6 kmh 29.78 in1008.5 mb 0.00 in0.0 mm 0.00 in0.0 mm 0.00 in0.0 mm
07:25 AM 32.4°F0.2°C 26.6°F-3.0°C 79% 10.0 mph SW16.1 kmh SW 24.0 mph38.6 kmh 29.78 in1008.5 mb 0.00 in0.0 mm 0.00 in0.0 mm 0.00 in0.0 mm
07:30 AM 32.4°F0.2°C 26.6°F-3.0°C 79% 11.0 mph WSW17.7 kmh WSW 24.0 mph38.6 kmh 29.77 in1008.1 mb 0.00 in0.0 mm 0.00 in0.0 mm 0.00 in0.0 mm
07:35 AM 32.4°F0.2°C 26.6°F-3.0°C 79% 11.0 mph W17.7 kmh W 24.0 mph38.6 kmh 29.77 in1008.1 mb 0.00 in0.0 mm 0.00 in0.0 mm 0.00 in0.0 mm
07:40 AM 32.3°F0.2°C 26.8°F-2.9°C 80% 13.0 mph WSW20.9 kmh WSW 19.0 mph30.6 kmh 29.77 in1008.1 mb 0.00 in0.0 mm 0.00 in0.0 mm 0.00 in0.0 mm
07:45 AM 32.2°F0.1°C 27.0°F-2.8°C 81% 14.0 mph WSW22.5 kmh WSW 23.0 mph37.0 kmh 29.78 in1008.5 mb 0.00 in0.0 mm 0.00 in0.0 mm 0.00 in0.0 mm
07:50 AM 32.1°F0.1°C 26.9°F-2.8°C 81% 10.0 mph WSW16.1 kmh WSW 23.0 mph37.0 kmh 29.78 in1008.5 mb 0.00 in0.0 mm 0.00 in0.0 mm 0.00 in0.0 mm
07:55 AM 32.0°F0.0°C 27.1°F-2.7°C 82% 8.0 mph SW12.9 kmh SW 23.0 mph37.0 kmh 29.78 in1008.5 mb 0.00 in0.0 mm 0.00 in0.0 mm 0.00 in0.0 mm
08:00 AM 32.0°F0.0°C 27.1°F-2.7°C 82% 15.0 mph WSW24.1 kmh WSW 23.0 mph37.0 kmh 29.78 in1008.5 mb 0.00 in0.0 mm 0.00 in0.0 mm 0.00 in0.0 mm
08:05 AM 31.9°F-0.1°C 27.3°F-2.6°C 83% 19.0 mph SW30.6 kmh SW 19.0 mph30.6 kmh 29.78 in1008.5 mb 0.00 in0.0 mm 0.00 in0.0 mm 0.00 in0.0 mm
08:10 AM 31.9°F-0.1°C 27.3°F-2.6°C 83% 10.0 mph WSW16.1 kmh WSW 19.0 mph30.6 kmh 29.78 in1008.5 mb 0.00 in0.0 mm 0.00 in0.0 mm 0.00 in0.0 mm
08:15 AM 31.9°F-0.1°C 27.3°F-2.6°C 83% 12.0 mph WSW19.3 kmh WSW 19.0 mph30.6 kmh 29.78 in1008.5 mb 0.00 in0.0 mm 0.00 in0.0 mm 0.00 in0.0 mm
08:20 AM 31.9°F-0.1°C 27.3°F-2.6°C 83% 12.0 mph WSW19.3 kmh WSW 19.0 mph30.6 kmh 29.78 in1008.5 mb 0.00 in0.0 mm 0.00 in0.0 mm 0.00 in0.0 mm
08:25 AM 32.0°F0.0°C 27.4°F-2.6°C 83% 12.0 mph W19.3 kmh W 19.0 mph30.6 kmh 29.78 in1008.5 mb 0.00 in0.0 mm 0.00 in0.0 mm 0.00 in0.0 mm
08:30 AM 31.9°F-0.1°C 27.3°F-2.6°C 83% 14.0 mph WSW22.5 kmh WSW 19.0 mph30.6 kmh 29.78 in1008.5 mb 0.00 in0.0 mm 0.00 in0.0 mm 0.00 in0.0 mm
08:35 AM 31.9°F-0.1°C 27.6°F-2.4°C 84% 10.0 mph WSW16.1 kmh WSW 19.0 mph30.6 kmh 29.78 in1008.5 mb 0.00 in0.0 mm 0.00 in0.0 mm 0.00 in0.0 mm
08:40 AM 31.8°F-0.1°C 27.5°F-2.5°C 84% 13.0 mph SW20.9 kmh SW 17.0 mph27.4 kmh 29.77 in1008.1 mb 0.00 in0.0 mm 0.00 in0.0 mm 0.00 in0.0 mm
08:45 AM 31.7°F-0.2°C 27.4°F-2.6°C 84% 16.0 mph WSW25.7 kmh WSW 17.0 mph27.4 kmh 29.77 in1008.1 mb 0.00 in0.0 mm 0.00 in0.0 mm 0.00 in0.0 mm
08:50 AM 31.7°F-0.2°C 27.7°F-2.4°C 85% 11.0 mph W17.7 kmh W 17.0 mph27.4 kmh 29.78 in1008.5 mb 0.00 in0.0 mm 0.00 in0.0 mm 0.00 in0.0 mm
08:55 AM 31.7°F-0.2°C 27.4°F-2.6°C 84% 10.0 mph WSW16.1 kmh WSW 19.0 mph30.6 kmh 29.77 in1008.1 mb 0.00 in0.0 mm 0.00 in0.0 mm 0.00 in0.0 mm
09:00 AM 31.8°F-0.1°C 27.8°F-2.3°C 85% 8.0 mph W12.9 kmh W 19.0 mph30.6 kmh 29.77 in1008.1 mb 0.00 in0.0 mm 0.00 in0.0 mm 0.00 in0.0 mm
09:05 AM 31.7°F-0.2°C 27.4°F-2.6°C 84% 20.0 mph W32.2 kmh W 23.0 mph37.0 kmh 29.77 in1008.1 mb 0.00 in0.0 mm 0.00 in0.0 mm 0.00 in0.0 mm
09:10 AM 31.8°F-0.1°C 27.5°F-2.5°C 84% 22.0 mph WSW35.4 kmh WSW 23.0 mph37.0 kmh 29.77 in1008.1 mb 0.00 in0.0 mm 0.00 in0.0 mm 0.00 in0.0 mm
09:15 AM 31.9°F-0.1°C 27.6°F-2.4°C 84% 12.0 mph WSW19.3 kmh WSW 23.0 mph37.0 kmh 29.77 in1008.1 mb 0.00 in0.0 mm 0.00 in0.0 mm 0.00 in0.0 mm
09:20 AM 32.1°F0.1°C 27.8°F-2.3°C 84% 16.0 mph SW25.7 kmh SW 23.0 mph37.0 kmh 29.77 in1008.1 mb 0.00 in0.0 mm 0.00 in0.0 mm 0.00 in0.0 mm
09:25 AM 32.1°F0.1°C 27.5°F-2.5°C 83% 16.0 mph WSW25.7 kmh WSW 22.0 mph35.4 kmh 29.77 in1008.1 mb 0.00 in0.0 mm 0.00 in0.0 mm 0.00 in0.0 mm
09:30 AM 32.3°F0.2°C 27.7°F-2.4°C 83% 12.0 mph WSW19.3 kmh WSW 22.0 mph35.4 kmh 29.77 in1008.1 mb 0.00 in0.0 mm 0.00 in0.0 mm 0.00 in0.0 mm
09:35 AM 32.4°F0.2°C 27.5°F-2.5°C 82% 17.0 mph WSW27.4 kmh WSW 22.0 mph35.4 kmh 29.77 in1008.1 mb 0.00 in0.0 mm 0.00 in0.0 mm 0.00 in0.0 mm
09:40 AM 32.4°F0.2°C 27.5°F-2.5°C 82% 18.0 mph WSW29.0 kmh WSW 22.0 mph35.4 kmh 29.77 in1008.1 mb 0.00 in0.0 mm 0.00 in0.0 mm 0.00 in0.0 mm
09:45 AM 32.4°F0.2°C 27.2°F-2.7°C 81% 15.0 mph W24.1 kmh W 22.0 mph35.4 kmh 29.77 in1008.1 mb 0.00 in0.0 mm 0.00 in0.0 mm 0.00 in0.0 mm
09:50 AM 32.4°F0.2°C 27.2°F-2.7°C 81% 11.0 mph W17.7 kmh W 27.0 mph43.5 kmh 29.77 in1008.1 mb 0.00 in0.0 mm 0.00 in0.0 mm 0.00 in0.0 mm
09:55 AM 32.5°F0.3°C 27.0°F-2.8°C 80% 21.0 mph W33.8 kmh W 27.0 mph43.5 kmh 29.77 in1008.1 mb 0.00 in0.0 mm 0.00 in0.0 mm 0.00 in0.0 mm
10:00 AM 32.5°F0.3°C 27.0°F-2.8°C 80% 12.0 mph W19.3 kmh W 27.0 mph43.5 kmh 29.77 in1008.1 mb 0.00 in0.0 mm 0.00 in0.0 mm 0.00 in0.0 mm
10:05 AM 32.7°F0.4°C 27.2°F-2.7°C 80% 10.0 mph WNW16.1 kmh WNW 27.0 mph43.5 kmh 29.77 in1008.1 mb 0.00 in0.0 mm 0.00 in0.0 mm 0.00 in0.0 mm
10:10 AM 32.7°F0.4°C 26.9°F-2.8°C 79% 15.0 mph W24.1 kmh W 17.0 mph27.4 kmh 29.77 in1008.1 mb 0.00 in0.0 mm 0.00 in0.0 mm 0.00 in0.0 mm
10:15 AM 32.6°F0.3°C 26.8°F-2.9°C 79% 10.0 mph W16.1 kmh W 21.0 mph33.8 kmh 29.77 in1008.1 mb 0.00 in0.0 mm 0.00 in0.0 mm 0.00 in0.0 mm
10:20 AM 32.5°F0.3°C 26.7°F-2.9°C 79% 10.0 mph WNW16.1 kmh WNW 22.0 mph35.4 kmh 29.78 in1008.5 mb 0.00 in0.0 mm 0.00 in0.0 mm 0.00 in0.0 mm
10:25 AM 32.3°F0.2°C 26.8°F-2.9°C 80% 10.0 mph W16.1 kmh W 22.0 mph35.4 kmh 29.77 in1008.1 mb 0.00 in0.0 mm 0.00 in0.0 mm 0.00 in0.0 mm
10:30 AM 32.1°F0.1°C 26.9°F-2.8°C 81% 15.0 mph WSW24.1 kmh WSW 22.0 mph35.4 kmh 29.78 in1008.5 mb 0.00 in0.0 mm 0.00 in0.0 mm 0.00 in0.0 mm
10:35 AM 31.9°F-0.1°C 27.0°F-2.8°C 82% 13.0 mph W20.9 kmh W 22.0 mph35.4 kmh 29.77 in1008.1 mb 0.00 in0.0 mm 0.00 in0.0 mm 0.00 in0.0 mm
10:40 AM 31.5°F-0.3°C 26.9°F-2.8°C 83% 12.0 mph WSW19.3 kmh WSW 20.0 mph32.2 kmh 29.77 in1008.1 mb 0.00 in0.0 mm 0.00 in0.0 mm 0.00 in0.0 mm
10:45 AM 31.7°F-0.2°C 27.4°F-2.6°C 84% 13.0 mph WSW20.9 kmh WSW 20.0 mph32.2 kmh 29.77 in1008.1 mb 0.00 in0.0 mm 0.00 in0.0 mm 0.00 in0.0 mm
10:50 AM 31.9°F-0.1°C 27.6°F-2.4°C 84% 10.0 mph WNW16.1 kmh WNW 24.0 mph38.6 kmh 29.77 in1008.1 mb 0.00 in0.0 mm 0.00 in0.0 mm 0.00 in0.0 mm
10:55 AM 32.0°F0.0°C 27.7°F-2.4°C 84% 12.0 mph W19.3 kmh W 24.0 mph38.6 kmh 29.77 in1008.1 mb 0.00 in0.0 mm 0.00 in0.0 mm 0.00 in0.0 mm
11:00 AM 31.7°F-0.2°C 27.4°F-2.6°C 84% 13.0 mph WSW20.9 kmh WSW 24.0 mph38.6 kmh 29.78 in1008.5 mb 0.00 in0.0 mm 0.00 in0.0 mm 0.00 in0.0 mm
11:05 AM 30.9°F-0.6°C 26.7°F-2.9°C 84% 21.0 mph W33.8 kmh W 24.0 mph38.6 kmh 29.78 in1008.5 mb 0.00 in0.0 mm 0.00 in0.0 mm 0.00 in0.0 mm
11:10 AM 30.3°F-0.9°C 26.4°F-3.1°C 85% 11.0 mph WNW17.7 kmh WNW 24.0 mph38.6 kmh 29.78 in1008.5 mb 0.00 in0.0 mm 0.00 in0.0 mm 0.00 in0.0 mm
11:15 AM 31.2°F-0.4°C 27.5°F-2.5°C 86% 12.0 mph WSW19.3 kmh WSW 24.0 mph38.6 kmh 29.77 in1008.1 mb 0.00 in0.0 mm 0.00 in0.0 mm 0.00 in0.0 mm
11:20 AM 31.9°F-0.1°C 27.9°F-2.3°C 85% 6.0 mph WNW9.7 kmh WNW 18.0 mph29.0 kmh 29.77 in1008.1 mb 0.00 in0.0 mm 0.00 in0.0 mm 0.00 in0.0 mm
11:25 AM 32.4°F0.2°C 27.8°F-2.3°C 83% 10.0 mph WSW16.1 kmh WSW 18.0 mph29.0 kmh 29.77 in1008.1 mb 0.00 in0.0 mm 0.00 in0.0 mm 0.00 in0.0 mm
11:30 AM 32.8°F0.4°C 27.6°F-2.4°C 81% 11.0 mph W17.7 kmh W 18.0 mph29.0 kmh 29.77 in1008.1 mb 0.00 in0.0 mm 0.00 in0.0 mm 0.00 in0.0 mm
11:35 AM 32.9°F0.5°C 27.1°F-2.7°C 79% 14.0 mph WSW22.5 kmh WSW 21.0 mph33.8 kmh 29.77 in1008.1 mb 0.00 in0.0 mm 0.00 in0.0 mm 0.00 in0.0 mm
11:40 AM 32.8°F0.4°C 26.0°F-3.3°C 76% 16.0 mph W25.7 kmh W 21.0 mph33.8 kmh 29.77 in1008.1 mb 0.00 in0.0 mm 0.00 in0.0 mm 0.00 in0.0 mm
11:45 AM 33.1°F0.6°C 26.3°F-3.2°C 76% 8.0 mph W12.9 kmh W 21.0 mph33.8 kmh 29.77 in1008.1 mb 0.00 in0.0 mm 0.00 in0.0 mm 0.00 in0.0 mm
11:50 AM 33.3°F0.7°C 25.8°F-3.4°C 74% 10.0 mph W16.1 kmh W 21.0 mph33.8 kmh 29.77 in1008.1 mb 0.00 in0.0 mm 0.00 in0.0 mm 0.00 in0.0 mm
11:55 AM 33.3°F0.7°C 25.5°F-3.6°C 73% 15.0 mph WSW24.1 kmh WSW 21.0 mph33.8 kmh 29.77 in1008.1 mb 0.00 in0.0 mm 0.00 in0.0 mm 0.00 in0.0 mm
12:00 PM 33.5°F0.8°C 25.7°F-3.5°C 73% 17.0 mph WNW27.4 kmh WNW 21.0 mph33.8 kmh 29.77 in1008.1 mb 0.00 in0.0 mm 0.00 in0.0 mm 0.00 in0.0 mm
12:05 PM 33.9°F1.1°C 26.4°F-3.1°C 74% 13.0 mph W20.9 kmh W 21.0 mph33.8 kmh 29.77 in1008.1 mb 0.00 in0.0 mm 0.00 in0.0 mm 0.00 in0.0 mm
12:10 PM 34.3°F1.3°C 26.1°F-3.3°C 72% 22.0 mph WNW35.4 kmh WNW 22.0 mph35.4 kmh 29.77 in1008.1 mb 0.00 in0.0 mm 0.00 in0.0 mm 0.00 in0.0 mm
12:15 PM 34.3°F1.3°C 25.8°F-3.4°C 71% 16.0 mph W25.7 kmh W 22.0 mph35.4 kmh 29.77 in1008.1 mb 0.00 in0.0 mm 0.00 in0.0 mm 0.00 in0.0 mm
12:20 PM 34.3°F1.3°C 25.4°F-3.7°C 70% 14.0 mph WSW22.5 kmh WSW 22.0 mph35.4 kmh 29.77 in1008.1 mb 0.00 in0.0 mm 0.00 in0.0 mm 0.00 in0.0 mm
12:25 PM 34.7°F1.5°C 25.5°F-3.6°C 69% 7.0 mph W11.3 kmh W 22.0 mph35.4 kmh 29.77 in1008.1 mb 0.00 in0.0 mm 0.00 in0.0 mm 0.00 in0.0 mm
12:30 PM 34.9°F1.6°C 25.6°F-3.6°C 69% 14.0 mph W22.5 kmh W 19.0 mph30.6 kmh 29.77 in1008.1 mb 0.00 in0.0 mm 0.00 in0.0 mm 0.00 in0.0 mm
12:35 PM 35.0°F1.7°C 25.0°F-3.9°C 67% 21.0 mph WNW33.8 kmh WNW 25.0 mph40.2 kmh 29.77 in1008.1 mb 0.00 in0.0 mm 0.00 in0.0 mm 0.00 in0.0 mm
12:40 PM 35.2°F1.8°C 24.8°F-4.0°C 66% 15.0 mph W24.1 kmh W 26.0 mph41.8 kmh 29.77 in1008.1 mb 0.00 in0.0 mm 0.00 in0.0 mm 0.00 in0.0 mm
12:45 PM 35.5°F1.9°C 25.1°F-3.8°C 66% 14.0 mph WNW22.5 kmh WNW 26.0 mph41.8 kmh 29.77 in1008.1 mb 0.00 in0.0 mm 0.00 in0.0 mm 0.00 in0.0 mm
12:50 PM 35.3°F1.8°C 23.8°F-4.6°C 63% 20.0 mph W32.2 kmh W 26.0 mph41.8 kmh 29.77 in1008.1 mb 0.00 in0.0 mm 0.00 in0.0 mm 0.00 in0.0 mm
12:55 PM 35.4°F1.9°C 23.9°F-4.5°C 63% 18.0 mph WNW29.0 kmh WNW 31.0 mph49.9 kmh 29.77 in1008.1 mb 0.00 in0.0 mm 0.00 in0.0 mm 0.00 in0.0 mm
01:00 PM 35.9°F2.2°C 24.7°F-4.1°C 64% 13.0 mph W20.9 kmh W 31.0 mph49.9 kmh 29.77 in1008.1 mb 0.00 in0.0 mm 0.00 in0.0 mm 0.00 in0.0 mm
01:05 PM 35.8°F2.1°C 23.9°F-4.5°C 62% 22.0 mph W35.4 kmh W 31.0 mph49.9 kmh 29.77 in1008.1 mb 0.00 in0.0 mm 0.00 in0.0 mm 0.00 in0.0 mm
01:10 PM 35.3°F1.8°C 23.8°F-4.6°C 63% 17.0 mph WSW27.4 kmh WSW 31.0 mph49.9 kmh 29.77 in1008.1 mb 0.00 in0.0 mm 0.00 in0.0 mm 0.00 in0.0 mm
01:15 PM 35.1°F1.7°C 24.0°F-4.4°C 64% 23.0 mph WSW37.0 kmh WSW 28.0 mph45.1 kmh 29.77 in1008.1 mb 0.00 in0.0 mm 0.00 in0.0 mm 0.00 in0.0 mm
01:20 PM 34.8°F1.6°C 23.3°F-4.8°C 63% 19.0 mph WNW30.6 kmh WNW 31.0 mph49.9 kmh 29.77 in1008.1 mb 0.00 in0.0 mm 0.00 in0.0 mm 0.00 in0.0 mm
01:25 PM 34.4°F1.3°C 23.7°F-4.6°C 65% 7.0 mph WSW11.3 kmh WSW 31.0 mph49.9 kmh 29.77 in1008.1 mb 0.00 in0.0 mm 0.00 in0.0 mm 0.00 in0.0 mm
01:30 PM 34.5°F1.4°C 23.0°F-5.0°C 63% 9.0 mph WNW14.5 kmh WNW 31.0 mph49.9 kmh 29.77 in1008.1 mb 0.00 in0.0 mm 0.00 in0.0 mm 0.00 in0.0 mm
01:35 PM 34.7°F1.5°C 23.2°F-4.9°C 63% 9.0 mph W14.5 kmh W 31.0 mph49.9 kmh 29.77 in1008.1 mb 0.00 in0.0 mm 0.00 in0.0 mm 0.00 in0.0 mm
01:40 PM 34.7°F1.5°C 23.2°F-4.9°C 63% 14.0 mph WSW22.5 kmh WSW 24.0 mph38.6 kmh 29.78 in1008.5 mb 0.00 in0.0 mm 0.00 in0.0 mm 0.00 in0.0 mm
01:45 PM 34.8°F1.6°C 23.7°F-4.6°C 64% 12.0 mph W19.3 kmh W 24.0 mph38.6 kmh 29.78 in1008.5 mb 0.00 in0.0 mm 0.00 in0.0 mm 0.00 in0.0 mm
01:50 PM 34.8°F1.6°C 24.1°F-4.4°C 65% 10.0 mph WSW16.1 kmh WSW 19.0 mph30.6 kmh 29.78 in1008.5 mb 0.00 in0.0 mm 0.00 in0.0 mm 0.00 in0.0 mm
01:55 PM 34.9°F1.6°C 24.5°F-4.2°C 66% 5.0 mph WSW8.0 kmh WSW 20.0 mph32.2 kmh 29.78 in1008.5 mb 0.00 in0.0 mm 0.00 in0.0 mm 0.00 in0.0 mm
02:00 PM 34.9°F1.6°C 24.2°F-4.3°C 65% 10.0 mph WSW16.1 kmh WSW 20.0 mph32.2 kmh 29.78 in1008.5 mb 0.00 in0.0 mm 0.00 in0.0 mm 0.00 in0.0 mm
02:05 PM 34.5°F1.4°C 23.0°F-5.0°C 63% 7.0 mph W11.3 kmh W 20.0 mph32.2 kmh 29.78 in1008.5 mb 0.00 in0.0 mm 0.00 in0.0 mm 0.00 in0.0 mm
02:10 PM 34.4°F1.3°C 23.3°F-4.8°C 64% 6.0 mph WSW9.7 kmh WSW 20.0 mph32.2 kmh 29.78 in1008.5 mb 0.00 in0.0 mm 0.00 in0.0 mm 0.00 in0.0 mm
02:15 PM 34.3°F1.3°C 23.2°F-4.9°C 64% 14.0 mph WSW22.5 kmh WSW 18.0 mph29.0 kmh 29.78 in1008.5 mb 0.00 in0.0 mm 0.00 in0.0 mm 0.00 in0.0 mm
02:20 PM 34.1°F1.2°C 23.0°F-5.0°C 64% 12.0 mph W19.3 kmh W 24.0 mph38.6 kmh 29.79 in1008.8 mb 0.00 in0.0 mm 0.00 in0.0 mm 0.00 in0.0 mm
02:25 PM 33.8°F1.0°C 23.1°F-4.9°C 65% 19.0 mph W30.6 kmh W 31.0 mph49.9 kmh 29.79 in1008.8 mb 0.00 in0.0 mm 0.00 in0.0 mm 0.00 in0.0 mm
02:30 PM 33.6°F0.9°C 23.3°F-4.8°C 66% 21.0 mph WNW33.8 kmh WNW 31.0 mph49.9 kmh 29.79 in1008.8 mb 0.00 in0.0 mm 0.00 in0.0 mm 0.00 in0.0 mm
02:35 PM 33.4°F0.8°C 24.2°F-4.3°C 69% 18.0 mph WNW29.0 kmh WNW 31.0 mph49.9 kmh 29.80 in1009.1 mb 0.00 in0.0 mm 0.00 in0.0 mm 0.00 in0.0 mm
02:40 PM 32.9°F0.5°C 24.1°F-4.4°C 70% 12.0 mph W19.3 kmh W 31.0 mph49.9 kmh 29.80 in1009.1 mb 0.00 in0.0 mm 0.00 in0.0 mm 0.00 in0.0 mm
02:45 PM 33.0°F0.6°C 24.5°F-4.2°C 71% 9.0 mph W14.5 kmh W 21.0 mph33.8 kmh 29.80 in1009.1 mb 0.00 in0.0 mm 0.00 in0.0 mm 0.00 in0.0 mm
02:50 PM 33.3°F0.7°C 24.8°F-4.0°C 71% 14.0 mph WSW22.5 kmh WSW 21.0 mph33.8 kmh 29.80 in1009.1 mb 0.00 in0.0 mm 0.00 in0.0 mm 0.00 in0.0 mm
02:55 PM 33.2°F0.7°C 25.1°F-3.8°C 72% 11.0 mph WNW17.7 kmh WNW 23.0 mph37.0 kmh 29.80 in1009.1 mb 0.00 in0.0 mm 0.00 in0.0 mm 0.00 in0.0 mm
03:00 PM 33.1°F0.6°C 25.3°F-3.7°C 73% 17.0 mph WNW27.4 kmh WNW 24.0 mph38.6 kmh 29.80 in1009.1 mb 0.00 in0.0 mm 0.00 in0.0 mm 0.00 in0.0 mm
03:05 PM 33.1°F0.6°C 24.6°F-4.1°C 71% 13.0 mph WNW20.9 kmh WNW 24.0 mph38.6 kmh 29.80 in1009.1 mb 0.00 in0.0 mm 0.00 in0.0 mm 0.00 in0.0 mm
03:10 PM 33.3°F0.7°C 24.5°F-4.2°C 70% 11.0 mph WNW17.7 kmh WNW 25.0 mph40.2 kmh 29.80 in1009.1 mb 0.00 in0.0 mm 0.00 in0.0 mm 0.00 in0.0 mm
03:15 PM 33.5°F0.8°C 24.7°F-4.1°C 70% 12.0 mph W19.3 kmh W 25.0 mph40.2 kmh 29.80 in1009.1 mb 0.00 in0.0 mm 0.00 in0.0 mm 0.00 in0.0 mm
03:20 PM 33.9°F1.1°C 25.0°F-3.9°C 70% 8.0 mph W12.9 kmh W 25.0 mph40.2 kmh 29.80 in1009.1 mb 0.00 in0.0 mm 0.00 in0.0 mm 0.00 in0.0 mm
03:25 PM 34.1°F1.2°C 24.9°F-3.9°C 69% 10.0 mph WSW16.1 kmh WSW 25.0 mph40.2 kmh 29.80 in1009.1 mb 0.00 in0.0 mm 0.00 in0.0 mm 0.00 in0.0 mm
03:30 PM 34.2°F1.2°C 24.6°F-4.1°C 68% 19.0 mph NW30.6 kmh NW 22.0 mph35.4 kmh 29.80 in1009.1 mb 0.00 in0.0 mm 0.00 in0.0 mm 0.00 in0.0 mm
03:35 PM 34.1°F1.2°C 24.5°F-4.2°C 68% 15.0 mph W24.1 kmh W 22.0 mph35.4 kmh 29.81 in1009.5 mb 0.00 in0.0 mm 0.00 in0.0 mm 0.00 in0.0 mm
03:40 PM 34.0°F1.1°C 25.1°F-3.8°C 70% 8.0 mph WSW12.9 kmh WSW 22.0 mph35.4 kmh 29.81 in1009.5 mb 0.00 in0.0 mm 0.00 in0.0 mm 0.00 in0.0 mm
03:45 PM 34.5°F1.4°C 25.3°F-3.7°C 69% 15.0 mph WNW24.1 kmh WNW 22.0 mph35.4 kmh 29.81 in1009.5 mb 0.00 in0.0 mm 0.00 in0.0 mm 0.00 in0.0 mm
03:50 PM 34.5°F1.4°C 24.9°F-3.9°C 68% 18.0 mph WSW29.0 kmh WSW 18.0 mph29.0 kmh 29.80 in1009.1 mb 0.00 in0.0 mm 0.00 in0.0 mm 0.00 in0.0 mm
03:55 PM 34.4°F1.3°C 24.4°F-4.2°C 67% 11.0 mph W17.7 kmh W 18.0 mph29.0 kmh 29.81 in1009.5 mb 0.00 in0.0 mm 0.00 in0.0 mm 0.00 in0.0 mm
04:00 PM 34.2°F1.2°C 24.3°F-4.3°C 67% 12.0 mph W19.3 kmh W 18.0 mph29.0 kmh 29.81 in1009.5 mb 0.00 in0.0 mm 0.00 in0.0 mm 0.00 in0.0 mm
04:05 PM 34.0°F1.1°C 24.4°F-4.2°C 68% 13.0 mph W20.9 kmh W 23.0 mph37.0 kmh 29.81 in1009.5 mb 0.00 in0.0 mm 0.00 in0.0 mm 0.00 in0.0 mm
04:10 PM 34.0°F1.1°C 24.4°F-4.2°C 68% 6.0 mph W9.7 kmh W 23.0 mph37.0 kmh 29.81 in1009.5 mb 0.00 in0.0 mm 0.00 in0.0 mm 0.00 in0.0 mm
04:15 PM 34.0°F1.1°C 24.4°F-4.2°C 68% 6.0 mph W9.7 kmh W 23.0 mph37.0 kmh 29.81 in1009.5 mb 0.00 in0.0 mm 0.00 in0.0 mm 0.00 in0.0 mm
04:20 PM 34.0°F1.1°C 24.8°F-4.0°C 69% 7.0 mph W11.3 kmh W 23.0 mph37.0 kmh 29.81 in1009.5 mb 0.00 in0.0 mm 0.00 in0.0 mm 0.00 in0.0 mm
04:25 PM 34.1°F1.2°C 25.2°F-3.8°C 70% 6.0 mph WNW9.7 kmh WNW 18.0 mph29.0 kmh 29.82 in1009.8 mb 0.00 in0.0 mm 0.00 in0.0 mm 0.00 in0.0 mm
04:30 PM 34.4°F1.3°C 25.9°F-3.4°C 71% 8.0 mph WSW12.9 kmh WSW 18.0 mph29.0 kmh 29.82 in1009.8 mb 0.00 in0.0 mm 0.00 in0.0 mm 0.00 in0.0 mm
04:35 PM 35.2°F1.8°C 26.3°F-3.2°C 70% 14.0 mph WSW22.5 kmh WSW 17.0 mph27.4 kmh 29.81 in1009.5 mb 0.00 in0.0 mm 0.00 in0.0 mm 0.00 in0.0 mm
04:40 PM 35.2°F1.8°C 25.6°F-3.6°C 68% 7.0 mph W11.3 kmh W 19.0 mph30.6 kmh 29.82 in1009.8 mb 0.00 in0.0 mm 0.00 in0.0 mm 0.00 in0.0 mm
04:45 PM 35.0°F1.7°C 25.4°F-3.7°C 68% 7.0 mph W11.3 kmh W 19.0 mph30.6 kmh 29.82 in1009.8 mb 0.00 in0.0 mm 0.00 in0.0 mm 0.00 in0.0 mm
04:50 PM 34.7°F1.5°C 25.1°F-3.8°C 68% 8.0 mph WNW12.9 kmh WNW 19.0 mph30.6 kmh 29.82 in1009.8 mb 0.00 in0.0 mm 0.00 in0.0 mm 0.00 in0.0 mm
04:55 PM 34.5°F1.4°C 24.5°F-4.2°C 67% 7.0 mph W11.3 kmh W 19.0 mph30.6 kmh 29.82 in1009.8 mb 0.00 in0.0 mm 0.00 in0.0 mm 0.00 in0.0 mm
05:00 PM 34.6°F1.4°C 25.4°F-3.7°C 69% 11.0 mph NW17.7 kmh NW 18.0 mph29.0 kmh 29.82 in1009.8 mb 0.00 in0.0 mm 0.00 in0.0 mm 0.00 in0.0 mm
05:05 PM 35.0°F1.7°C 26.1°F-3.3°C 70% 8.0 mph W12.9 kmh W 18.0 mph29.0 kmh 29.82 in1009.8 mb 0.00 in0.0 mm 0.00 in0.0 mm 0.00 in0.0 mm
05:10 PM 35.0°F1.7°C 25.7°F-3.5°C 69% 8.0 mph WNW12.9 kmh WNW 21.0 mph33.8 kmh 29.83 in1010.2 mb 0.00 in0.0 mm 0.00 in0.0 mm 0.00 in0.0 mm
05:15 PM 34.9°F1.6°C 24.5°F-4.2°C 66% 5.0 mph W8.0 kmh W 21.0 mph33.8 kmh 29.83 in1010.2 mb 0.00 in0.0 mm 0.00 in0.0 mm 0.00 in0.0 mm
05:20 PM 34.8°F1.6°C 24.5°F-4.2°C 66% 6.0 mph W9.7 kmh W 21.0 mph33.8 kmh 29.83 in1010.2 mb 0.00 in0.0 mm 0.00 in0.0 mm 0.00 in0.0 mm
05:25 PM 34.7°F1.5°C 24.4°F-4.2°C 66% 8.0 mph W12.9 kmh W 21.0 mph33.8 kmh 29.83 in1010.2 mb 0.00 in0.0 mm 0.00 in0.0 mm 0.00 in0.0 mm
05:30 PM 34.7°F1.5°C 24.7°F-4.1°C 67% 7.0 mph WSW11.3 kmh WSW 19.0 mph30.6 kmh 29.84 in1010.5 mb 0.00 in0.0 mm 0.00 in0.0 mm 0.00 in0.0 mm
05:35 PM 34.7°F1.5°C 24.7°F-4.1°C 67% 7.0 mph WNW11.3 kmh WNW 19.0 mph30.6 kmh 29.84 in1010.5 mb 0.00 in0.0 mm 0.00 in0.0 mm 0.00 in0.0 mm
05:40 PM 34.7°F1.5°C 24.7°F-4.1°C 67% 7.0 mph NW11.3 kmh NW 17.0 mph27.4 kmh 29.84 in1010.5 mb 0.00 in0.0 mm 0.00 in0.0 mm 0.00 in0.0 mm
05:45 PM 34.7°F1.5°C 24.7°F-4.1°C 67% 4.0 mph W6.4 kmh W 17.0 mph27.4 kmh 29.84 in1010.5 mb 0.00 in0.0 mm 0.00 in0.0 mm 0.00 in0.0 mm
05:50 PM 34.8°F1.6°C 25.2°F-3.8°C 68% 14.0 mph WNW22.5 kmh WNW 16.0 mph25.7 kmh 29.84 in1010.5 mb 0.00 in0.0 mm 0.00 in0.0 mm 0.00 in0.0 mm
05:55 PM 34.8°F1.6°C 24.8°F-4.0°C 67% 12.0 mph W19.3 kmh W 16.0 mph25.7 kmh 29.84 in1010.5 mb 0.00 in0.0 mm 0.00 in0.0 mm 0.00 in0.0 mm
06:00 PM 34.8°F1.6°C 24.5°F-4.2°C 66% 5.0 mph W8.0 kmh W 16.0 mph25.7 kmh 29.84 in1010.5 mb 0.00 in0.0 mm 0.00 in0.0 mm 0.00 in0.0 mm
06:05 PM 34.9°F1.6°C 24.5°F-4.2°C 66% 5.0 mph W8.0 kmh W 16.0 mph25.7 kmh 29.85 in1010.8 mb 0.00 in0.0 mm 0.00 in0.0 mm 0.00 in0.0 mm
06:10 PM 34.9°F1.6°C 24.5°F-4.2°C 66% 6.0 mph WNW9.7 kmh WNW 16.0 mph25.7 kmh 29.85 in1010.8 mb 0.00 in0.0 mm 0.00 in0.0 mm 0.00 in0.0 mm
06:15 PM 34.9°F1.6°C 24.5°F-4.2°C 66% 10.0 mph WSW16.1 kmh WSW 22.0 mph35.4 kmh 29.85 in1010.8 mb 0.00 in0.0 mm 0.00 in0.0 mm 0.00 in0.0 mm
06:20 PM 34.9°F1.6°C 24.2°F-4.3°C 65% 6.0 mph W9.7 kmh W 22.0 mph35.4 kmh 29.85 in1010.8 mb 0.00 in0.0 mm 0.00 in0.0 mm 0.00 in0.0 mm
06:25 PM 35.0°F1.7°C 24.6°F-4.1°C 66% 5.0 mph WSW8.0 kmh WSW 22.0 mph35.4 kmh 29.85 in1010.8 mb 0.00 in0.0 mm 0.00 in0.0 mm 0.00 in0.0 mm
06:30 PM 35.1°F1.7°C 24.7°F-4.1°C 66% 7.0 mph WSW11.3 kmh WSW 22.0 mph35.4 kmh 29.86 in1011.2 mb 0.00 in0.0 mm 0.00 in0.0 mm 0.00 in0.0 mm
06:35 PM 35.3°F1.8°C 24.9°F-3.9°C 66% 8.0 mph W12.9 kmh W 16.0 mph25.7 kmh 29.86 in1011.2 mb 0.00 in0.0 mm 0.00 in0.0 mm 0.00 in0.0 mm
06:40 PM 35.4°F1.9°C 25.0°F-3.9°C 66% 5.0 mph WNW8.0 kmh WNW 16.0 mph25.7 kmh 29.86 in1011.2 mb 0.00 in0.0 mm 0.00 in0.0 mm 0.00 in0.0 mm
06:45 PM 35.4°F1.9°C 24.3°F-4.3°C 64% 8.0 mph WNW12.9 kmh WNW 18.0 mph29.0 kmh 29.86 in1011.2 mb 0.00 in0.0 mm 0.00 in0.0 mm 0.00 in0.0 mm
06:50 PM 35.5°F1.9°C 24.4°F-4.2°C 64% 8.0 mph WNW12.9 kmh WNW 18.0 mph29.0 kmh 29.86 in1011.2 mb 0.00 in0.0 mm 0.00 in0.0 mm 0.00 in0.0 mm
06:55 PM 35.5°F1.9°C 24.0°F-4.4°C 63% 8.0 mph NW12.9 kmh NW 18.0 mph29.0 kmh 29.86 in1011.2 mb 0.00 in0.0 mm 0.00 in0.0 mm 0.00 in0.0 mm
07:00 PM 35.4°F1.9°C 24.3°F-4.3°C 64% 6.0 mph WNW9.7 kmh WNW 18.0 mph29.0 kmh 29.86 in1011.2 mb 0.00 in0.0 mm 0.00 in0.0 mm 0.00 in0.0 mm
07:05 PM 35.5°F1.9°C 24.4°F-4.2°C 64% 5.0 mph WSW8.0 kmh WSW 15.0 mph24.1 kmh 29.86 in1011.2 mb 0.00 in0.0 mm 0.00 in0.0 mm 0.00 in0.0 mm
07:10 PM 35.5°F1.9°C 24.4°F-4.2°C 64% 7.0 mph WSW11.3 kmh WSW 16.0 mph25.7 kmh 29.86 in1011.2 mb 0.00 in0.0 mm 0.00 in0.0 mm 0.00 in0.0 mm
07:15 PM 35.4°F1.9°C 24.6°F-4.1°C 65% 10.0 mph WSW16.1 kmh WSW 16.0 mph25.7 kmh 29.87 in1011.5 mb 0.00 in0.0 mm 0.00 in0.0 mm 0.00 in0.0 mm
07:20 PM 35.4°F1.9°C 24.6°F-4.1°C 65% 4.0 mph WNW6.4 kmh WNW 17.0 mph27.4 kmh 29.87 in1011.5 mb 0.00 in0.0 mm 0.00 in0.0 mm 0.00 in0.0 mm
07:25 PM 35.3°F1.8°C 24.5°F-4.2°C 65% 9.0 mph W14.5 kmh W 18.0 mph29.0 kmh 29.87 in1011.5 mb 0.00 in0.0 mm 0.00 in0.0 mm 0.00 in0.0 mm
07:30 PM 35.3°F1.8°C 24.5°F-4.2°C 65% 3.0 mph W4.8 kmh W 18.0 mph29.0 kmh 29.86 in1011.2 mb 0.00 in0.0 mm 0.00 in0.0 mm 0.00 in0.0 mm
07:35 PM 35.2°F1.8°C 24.5°F-4.2°C 65% 5.0 mph W8.0 kmh W 18.0 mph29.0 kmh 29.87 in1011.5 mb 0.00 in0.0 mm 0.00 in0.0 mm 0.00 in0.0 mm
07:40 PM 35.2°F1.8°C 24.5°F-4.2°C 65% 4.0 mph WSW6.4 kmh WSW 18.0 mph29.0 kmh 29.86 in1011.2 mb 0.00 in0.0 mm 0.00 in0.0 mm 0.00 in0.0 mm
07:45 PM 35.2°F1.8°C 24.5°F-4.2°C 65% 5.0 mph WSW8.0 kmh WSW 14.0 mph22.5 kmh 29.87 in1011.5 mb 0.00 in0.0 mm 0.00 in0.0 mm 0.00 in0.0 mm
07:50 PM 35.2°F1.8°C 24.5°F-4.2°C 65% 5.0 mph W8.0 kmh W 14.0 mph22.5 kmh 29.87 in1011.5 mb 0.00 in0.0 mm 0.00 in0.0 mm 0.00 in0.0 mm
07:55 PM 35.2°F1.8°C 24.5°F-4.2°C 65% 3.0 mph WNW4.8 kmh WNW 11.0 mph17.7 kmh 29.87 in1011.5 mb 0.00 in0.0 mm 0.00 in0.0 mm 0.00 in0.0 mm
08:00 PM 35.2°F1.8°C 24.5°F-4.2°C 65% 5.0 mph W8.0 kmh W 11.0 mph17.7 kmh 29.87 in1011.5 mb 0.00 in0.0 mm 0.00 in0.0 mm 0.00 in0.0 mm
08:05 PM 35.1°F1.7°C 24.4°F-4.2°C 65% 8.0 mph W12.9 kmh W 17.0 mph27.4 kmh 29.87 in1011.5 mb 0.00 in0.0 mm 0.00 in0.0 mm 0.00 in0.0 mm
08:10 PM 35.1°F1.7°C 24.4°F-4.2°C 65% 4.0 mph W6.4 kmh W 17.0 mph27.4 kmh 29.88 in1011.9 mb 0.00 in0.0 mm 0.00 in0.0 mm 0.00 in0.0 mm
08:15 PM 35.1°F1.7°C 24.4°F-4.2°C 65% 6.0 mph WSW9.7 kmh WSW 17.0 mph27.4 kmh 29.88 in1011.9 mb 0.00 in0.0 mm 0.00 in0.0 mm 0.00 in0.0 mm
08:20 PM 35.1°F1.7°C 24.4°F-4.2°C 65% 5.0 mph W8.0 kmh W 17.0 mph27.4 kmh 29.88 in1011.9 mb 0.00 in0.0 mm 0.00 in0.0 mm 0.00 in0.0 mm
08:25 PM 35.1°F1.7°C 24.4°F-4.2°C 65% 5.0 mph W8.0 kmh W 13.0 mph20.9 kmh 29.88 in1011.9 mb 0.00 in0.0 mm 0.00 in0.0 mm 0.00 in0.0 mm
08:30 PM 35.0°F1.7°C 24.3°F-4.3°C 65% 7.0 mph W11.3 kmh W 13.0 mph20.9 kmh 29.88 in1011.9 mb 0.00 in0.0 mm 0.00 in0.0 mm 0.00 in0.0 mm
08:35 PM 35.0°F1.7°C 24.3°F-4.3°C 65% 6.0 mph WNW9.7 kmh WNW 11.0 mph17.7 kmh 29.88 in1011.9 mb 0.00 in0.0 mm 0.00 in0.0 mm 0.00 in0.0 mm
08:40 PM 35.1°F1.7°C 24.4°F-4.2°C 65% 4.0 mph W6.4 kmh W 11.0 mph17.7 kmh 29.89 in1012.2 mb 0.00 in0.0 mm 0.00 in0.0 mm 0.00 in0.0 mm
08:45 PM 35.1°F1.7°C 24.4°F-4.2°C 65% 6.0 mph SW9.7 kmh SW 10.0 mph16.1 kmh 29.89 in1012.2 mb 0.00 in0.0 mm 0.00 in0.0 mm 0.00 in0.0 mm
08:50 PM 35.0°F1.7°C 24.6°F-4.1°C 66% 4.0 mph W6.4 kmh W 10.0 mph16.1 kmh 29.89 in1012.2 mb 0.00 in0.0 mm 0.00 in0.0 mm 0.00 in0.0 mm
08:55 PM 35.0°F1.7°C 24.6°F-4.1°C 66% 3.0 mph WSW4.8 kmh WSW 7.0 mph11.3 kmh 29.89 in1012.2 mb 0.00 in0.0 mm 0.00 in0.0 mm 0.00 in0.0 mm
09:00 PM 35.0°F1.7°C 24.6°F-4.1°C 66% 7.0 mph W11.3 kmh W 10.0 mph16.1 kmh 29.89 in1012.2 mb 0.00 in0.0 mm 0.00 in0.0 mm 0.00 in0.0 mm
09:05 PM 35.0°F1.7°C 24.6°F-4.1°C 66% 5.0 mph W8.0 kmh W 10.0 mph16.1 kmh 29.89 in1012.2 mb 0.00 in0.0 mm 0.00 in0.0 mm 0.00 in0.0 mm
09:10 PM 34.9°F1.6°C 24.5°F-4.2°C 66% 3.0 mph WSW4.8 kmh WSW 10.0 mph16.1 kmh 29.90 in1012.5 mb 0.00 in0.0 mm 0.00 in0.0 mm 0.00 in0.0 mm
09:15 PM 34.9°F1.6°C 24.5°F-4.2°C 66% 4.0 mph WSW6.4 kmh WSW 10.0 mph16.1 kmh 29.90 in1012.5 mb 0.00 in0.0 mm 0.00 in0.0 mm 0.00 in0.0 mm
09:20 PM 34.9°F1.6°C 24.5°F-4.2°C 66% 4.0 mph SW6.4 kmh SW 7.0 mph11.3 kmh 29.90 in1012.5 mb 0.00 in0.0 mm 0.00 in0.0 mm 0.00 in0.0 mm
09:25 PM 34.9°F1.6°C 24.5°F-4.2°C 66% 3.0 mph W4.8 kmh W 7.0 mph11.3 kmh 29.90 in1012.5 mb 0.00 in0.0 mm 0.00 in0.0 mm 0.00 in0.0 mm
09:30 PM 34.9°F1.6°C 24.5°F-4.2°C 66% 3.0 mph SW4.8 kmh SW 7.0 mph11.3 kmh 29.90 in1012.5 mb 0.00 in0.0 mm 0.00 in0.0 mm 0.00 in0.0 mm
09:35 PM 34.9°F1.6°C 24.5°F-4.2°C 66% 2.0 mph W3.2 kmh W 9.0 mph14.5 kmh 29.90 in1012.5 mb 0.00 in0.0 mm 0.00 in0.0 mm 0.00 in0.0 mm
09:40 PM 34.8°F1.6°C 24.5°F-4.2°C 66% 4.0 mph WSW6.4 kmh WSW 10.0 mph16.1 kmh 29.90 in1012.5 mb 0.00 in0.0 mm 0.00 in0.0 mm 0.00 in0.0 mm
09:45 PM 34.7°F1.5°C 24.4°F-4.2°C 66% 5.0 mph W8.0 kmh W 11.0 mph17.7 kmh 29.90 in1012.5 mb 0.00 in0.0 mm 0.00 in0.0 mm 0.00 in0.0 mm
09:50 PM 34.7°F1.5°C 24.4°F-4.2°C 66% 3.0 mph WSW4.8 kmh WSW 11.0 mph17.7 kmh 29.91 in1012.9 mb 0.00 in0.0 mm 0.00 in0.0 mm 0.00 in0.0 mm
09:55 PM 34.6°F1.4°C 24.3°F-4.3°C 66% 3.0 mph WSW4.8 kmh WSW 11.0 mph17.7 kmh 29.91 in1012.9 mb 0.00 in0.0 mm 0.00 in0.0 mm 0.00 in0.0 mm
10:00 PM 34.6°F1.4°C 24.3°F-4.3°C 66% 5.0 mph WSW8.0 kmh WSW 11.0 mph17.7 kmh 29.91 in1012.9 mb 0.00 in0.0 mm 0.00 in0.0 mm 0.00 in0.0 mm
10:05 PM 34.5°F1.4°C 24.2°F-4.3°C 66% 4.0 mph WSW6.4 kmh WSW 11.0 mph17.7 kmh 29.91 in1012.9 mb 0.00 in0.0 mm 0.00 in0.0 mm 0.00 in0.0 mm
10:10 PM 34.4°F1.3°C 24.4°F-4.2°C 67% 5.0 mph W8.0 kmh W 11.0 mph17.7 kmh 29.91 in1012.9 mb 0.00 in0.0 mm 0.00 in0.0 mm 0.00 in0.0 mm
10:15 PM 34.4°F1.3°C 24.4°F-4.2°C 67% 5.0 mph WSW8.0 kmh WSW 14.0 mph22.5 kmh 29.91 in1012.9 mb 0.00 in0.0 mm 0.00 in0.0 mm 0.00 in0.0 mm
10:20 PM 34.3°F1.3°C 24.3°F-4.3°C 67% 3.0 mph WSW4.8 kmh WSW 14.0 mph22.5 kmh 29.91 in1012.9 mb 0.00 in0.0 mm 0.00 in0.0 mm 0.00 in0.0 mm
10:25 PM 34.3°F1.3°C 24.3°F-4.3°C 67% 5.0 mph W8.0 kmh W 14.0 mph22.5 kmh 29.91 in1012.9 mb 0.00 in0.0 mm 0.00 in0.0 mm 0.00 in0.0 mm
10:30 PM 34.2°F1.2°C 24.3°F-4.3°C 67% 6.0 mph WSW9.7 kmh WSW 14.0 mph22.5 kmh 29.91 in1012.9 mb 0.00 in0.0 mm 0.00 in0.0 mm 0.00 in0.0 mm
10:35 PM 34.2°F1.2°C 24.3°F-4.3°C 67% 4.0 mph WSW6.4 kmh WSW 10.0 mph16.1 kmh 29.91 in1012.9 mb 0.00 in0.0 mm 0.00 in0.0 mm 0.00 in0.0 mm
10:40 PM 34.2°F1.2°C 24.3°F-4.3°C 67% 6.0 mph WSW9.7 kmh WSW 10.0 mph16.1 kmh 29.91 in1012.9 mb 0.00 in0.0 mm 0.00 in0.0 mm 0.00 in0.0 mm
10:45 PM 34.1°F1.2°C 24.2°F-4.3°C 67% 4.0 mph WSW6.4 kmh WSW 9.0 mph14.5 kmh 29.91 in1012.9 mb 0.00 in0.0 mm 0.00 in0.0 mm 0.00 in0.0 mm
10:50 PM 34.1°F1.2°C 24.2°F-4.3°C 67% 5.0 mph WSW8.0 kmh WSW 9.0 mph14.5 kmh 29.91 in1012.9 mb 0.00 in0.0 mm 0.00 in0.0 mm 0.00 in0.0 mm
10:55 PM 34.0°F1.1°C 24.1°F-4.4°C 67% 3.0 mph WSW4.8 kmh WSW 9.0 mph14.5 kmh 29.91 in1012.9 mb 0.00 in0.0 mm 0.00 in0.0 mm 0.00 in0.0 mm
11:00 PM 34.0°F1.1°C 24.4°F-4.2°C 68% 6.0 mph WSW9.7 kmh WSW 9.0 mph14.5 kmh 29.91 in1012.9 mb 0.00 in0.0 mm 0.00 in0.0 mm 0.00 in0.0 mm
11:05 PM 34.0°F1.1°C 24.4°F-4.2°C 68% 4.0 mph W6.4 kmh W 11.0 mph17.7 kmh 29.91 in1012.9 mb 0.00 in0.0 mm 0.00 in0.0 mm 0.00 in0.0 mm
11:10 PM 34.0°F1.1°C 24.4°F-4.2°C 68% 4.0 mph WSW6.4 kmh WSW 11.0 mph17.7 kmh 29.91 in1012.9 mb 0.00 in0.0 mm 0.00 in0.0 mm 0.00 in0.0 mm
11:15 PM 34.0°F1.1°C 24.4°F-4.2°C 68% 2.0 mph WSW3.2 kmh WSW 11.0 mph17.7 kmh 29.91 in1012.9 mb 0.00 in0.0 mm 0.00 in0.0 mm 0.00 in0.0 mm
11:20 PM 34.0°F1.1°C 24.4°F-4.2°C 68% 5.0 mph WSW8.0 kmh WSW 11.0 mph17.7 kmh 29.91 in1012.9 mb 0.00 in0.0 mm 0.00 in0.0 mm 0.00 in0.0 mm
11:25 PM 33.9°F1.1°C 24.7°F-4.1°C 69% 6.0 mph WSW9.7 kmh WSW 7.0 mph11.3 kmh 29.91 in1012.9 mb 0.00 in0.0 mm 0.00 in0.0 mm 0.00 in0.0 mm
11:30 PM 33.9°F1.1°C 24.7°F-4.1°C 69% 3.0 mph WSW4.8 kmh WSW 9.0 mph14.5 kmh 29.91 in1012.9 mb 0.00 in0.0 mm 0.00 in0.0 mm 0.00 in0.0 mm
11:35 PM 33.9°F1.1°C 24.7°F-4.1°C 69% 4.0 mph WSW6.4 kmh WSW 9.0 mph14.5 kmh 29.91 in1012.9 mb 0.00 in0.0 mm 0.00 in0.0 mm 0.00 in0.0 mm
11:40 PM 33.9°F1.1°C 24.7°F-4.1°C 69% 3.0 mph SW4.8 kmh SW 9.0 mph14.5 kmh 29.92 in1013.2 mb 0.00 in0.0 mm 0.00 in0.0 mm 0.00 in0.0 mm
11:45 PM 33.9°F1.1°C 24.7°F-4.1°C 69% 5.0 mph WSW8.0 kmh WSW 9.0 mph14.5 kmh 29.92 in1013.2 mb 0.00 in0.0 mm 0.00 in0.0 mm 0.00 in0.0 mm
11:50 PM 33.9°F1.1°C 24.7°F-4.1°C 69% 4.0 mph WSW6.4 kmh WSW 7.0 mph11.3 kmh 29.92 in1013.2 mb 0.00 in0.0 mm 0.00 in0.0 mm 0.00 in0.0 mm
11:55 PM 33.9°F1.1°C 25.0°F-3.9°C 70% 6.0 mph WSW9.7 kmh WSW 7.0 mph11.3 kmh 29.92 in1013.2 mb 0.00 in0.0 mm 0.00 in0.0 mm 0.00 in0.0 mm